Time;durP1;ratioP1;P1;durP2;ratioP2;P2;SDS_P1;SDS_P2;PMS_P1;PMS_P2;Temp;Humidity;BMP_temperature;BMP_pressure;BME280_temperature;BME280_humidity;BME280_pressure;Samples;Min_cycle;Max_cycle;Signal;HPM_P1;HPM_P2
2024/01/16 00:00:41;;;;;;;7.47;2.00;;;;;;;-1.33;100.00;100162.91;5020949;28;20120;-80
2024/01/16 00:03:07;;;;;;;5.25;1.75;;;;;;;-1.33;100.00;100155.03;5006370;28;20120;-82
2024/01/16 00:05:33;;;;;;;3.50;1.80;;;;;;;-1.35;100.00;100163.13;5005686;28;20528;-81
2024/01/16 00:07:59;;;;;;;5.32;1.70;;;;;;;-1.33;100.00;100158.47;5006392;28;20076;-82
2024/01/16 00:10:25;;;;;;;3.10;1.70;;;;;;;-1.33;100.00;100166.34;5005368;28;20367;-80
2024/01/16 00:12:51;;;;;;;5.68;1.88;;;;;;;-1.35;100.00;100168.38;5002724;28;20520;-79
2024/01/16 00:15:16;;;;;;;5.95;1.73;;;;;;;-1.33;100.00;100173.41;5021148;28;20036;-82
2024/01/16 00:17:43;;;;;;;4.25;1.85;;;;;;;-1.30;100.00;100173.81;4987195;28;20045;-81
2024/01/16 00:20:10;;;;;;;3.83;1.77;;;;;;;-1.29;100.00;100185.13;5011508;28;20048;-79
2024/01/16 00:22:36;;;;;;;8.18;2.10;;;;;;;-1.28;100.00;100184.94;5005406;28;20511;-81
2024/01/16 00:25:02;;;;;;;3.47;1.83;;;;;;;-1.26;100.00;100195.22;4998300;28;20052;-80
2024/01/16 00:27:29;;;;;;;5.43;2.10;;;;;;;-1.28;100.00;100198.06;5024793;28;20037;-81
2024/01/16 00:29:54;;;;;;;5.03;1.88;;;;;;;-1.24;100.00;100199.25;5015261;28;20071;-81
2024/01/16 00:32:20;;;;;;;5.00;1.67;;;;;;;-1.24;100.00;100198.44;5021129;28;20057;-80
2024/01/16 00:34:45;;;;;;;4.90;2.22;;;;;;;-1.22;100.00;100201.66;5006068;28;20537;-80
2024/01/16 00:37:11;;;;;;;4.78;2.60;;;;;;;-1.22;100.00;100201.66;5018645;28;20060;-81
2024/01/16 00:39:36;;;;;;;5.63;2.60;;;;;;;-1.21;100.00;100211.19;5007228;28;20133;-81
2024/01/16 00:42:02;;;;;;;6.57;2.67;;;;;;;-1.22;100.00;100213.00;5026264;28;20063;-82
2024/01/16 00:44:28;;;;;;;5.13;2.83;;;;;;;-1.24;100.00;100214.22;5004476;28;20276;-78
2024/01/16 00:46:54;;;;;;;5.15;3.05;;;;;;;-1.26;100.00;100205.75;5018214;28;20560;-78
2024/01/16 00:49:20;;;;;;;7.35;3.47;;;;;;;-1.26;100.00;100211.78;5008114;28;20563;-83
2024/01/16 00:51:45;;;;;;;7.03;3.35;;;;;;;-1.28;100.00;100220.91;5008092;28;20099;-81
2024/01/16 00:54:12;;;;;;;5.22;3.58;;;;;;;-1.28;100.00;100220.91;5024851;28;20036;-82
2024/01/16 00:56:37;;;;;;;6.75;4.25;;;;;;;-1.27;100.00;100235.66;5006599;28;20092;-79
2024/01/16 00:59:03;;;;;;;8.10;4.47;;;;;;;-1.28;100.00;100234.03;4990595;28;20033;-80
2024/01/16 01:01:29;;;;;;;7.68;4.53;;;;;;;-1.27;100.00;100238.28;5015565;28;20041;-81
2024/01/16 01:03:56;;;;;;;5.05;3.78;;;;;;;-1.29;100.00;100253.41;5006897;28;20036;-80
2024/01/16 01:06:22;;;;;;;7.55;3.63;;;;;;;-1.29;100.00;100251.59;5005760;28;20037;-82
2024/01/16 01:08:47;;;;;;;8.45;4.47;;;;;;;-1.31;100.00;100247.56;5016798;28;20103;-81
2024/01/16 01:11:13;;;;;;;7.72;4.13;;;;;;;-1.31;100.00;100251.00;5003649;28;20029;-83
2024/01/16 01:13:39;;;;;;;9.70;4.65;;;;;;;-1.31;100.00;100250.19;5022361;28;20036;-84
2024/01/16 01:16:05;;;;;;;8.15;4.32;;;;;;;-1.31;100.00;100244.94;5043178;28;20033;-88
2024/01/16 01:18:30;;;;;;;6.72;4.38;;;;;;;-1.32;100.00;100256.47;5002718;28;20021;-90
2024/01/16 01:20:56;;;;;;;9.13;4.47;;;;;;;-1.38;100.00;100253.63;5014906;28;20029;-89
2024/01/16 01:23:22;;;;;;;8.02;3.97;;;;;;;-1.35;100.00;100259.47;4997657;28;20034;-87
2024/01/16 01:25:47;;;;;;;6.88;4.78;;;;;;;-1.40;100.00;100257.47;5011130;28;20030;-88
2024/01/16 01:28:13;;;;;;;7.22;4.82;;;;;;;-1.40;100.00;100268.78;5015139;28;20029;-85
2024/01/16 01:30:39;;;;;;;8.38;4.65;;;;;;;-1.42;100.00;100270.03;5014592;28;20096;-86
2024/01/16 01:33:05;;;;;;;8.85;4.65;;;;;;;-1.46;100.00;100268.78;5033960;28;20177;-88
2024/01/16 01:35:30;;;;;;;8.05;4.32;;;;;;;-1.47;100.00;100273.25;5015681;28;20107;-87
2024/01/16 01:37:56;;;;;;;6.57;4.15;;;;;;;-1.50;100.00;100268.38;5030479;28;20029;-89
2024/01/16 01:40:22;;;;;;;8.10;4.20;;;;;;;-1.50;100.00;100272.81;5016121;28;20103;-88
2024/01/16 01:42:48;;;;;;;6.53;4.10;;;;;;;-1.57;100.00;100272.00;5043843;28;20033;-86
2024/01/16 01:45:14;;;;;;;7.03;3.90;;;;;;;-1.60;100.00;100270.63;5029020;28;20076;-86
2024/01/16 01:47:43;;;;;;;7.20;3.97;;;;;;;-1.59;100.00;100274.03;5044135;28;20025;-88
2024/01/16 01:50:10;;;;;;;7.80;3.72;;;;;;;-1.57;100.00;100285.94;5031926;28;20025;-90
2024/01/16 01:52:39;;;;;;;7.68;3.88;;;;;;;-1.58;100.00;100284.34;5008502;28;20654;-91
2024/01/16 01:55:10;;;;;;;5.80;3.53;;;;;;;-1.57;100.00;100293.84;5042970;28;20032;-88
2024/01/16 01:57:37;;;;;;;5.40;3.65;;;;;;;-1.57;100.00;100279.91;5012435;28;20045;-84
2024/01/16 02:00:04;;;;;;;;;;;;;;;-1.55;100.00;100298.91;5019107;28;20498;-88
2024/01/16 02:02:41;;;;;;;5.78;3.45;;;;;;;-1.60;100.00;100294.25;5033381;28;19936;-85
2024/01/16 02:05:07;;;;;;;7.05;3.65;;;;;;;-1.59;100.00;100305.56;4987516;28;20037;-80
2024/01/16 02:07:33;;;;;;;7.25;3.72;;;;;;;-1.58;100.00;100307.97;5008478;28;20039;-81
2024/01/16 02:10:00;;;;;;;;;;;;;;;-1.57;100.00;100319.28;5007122;28;20032;-82
2024/01/16 02:12:26;;;;;;;7.13;3.45;;;;;;;-1.58;100.00;100322.91;5000022;28;19924;-81
2024/01/16 02:14:52;;;;;;;7.72;4.20;;;;;;;-1.58;100.00;100322.91;5018221;28;20115;-83
2024/01/16 02:17:18;;;;;;;9.82;4.28;;;;;;;-1.64;100.00;100319.28;5034901;28;20031;-82
2024/01/16 02:19:44;;;;;;;8.18;4.40;;;;;;;-1.67;100.00;100319.69;5039532;28;20115;-79
2024/01/16 02:22:16;;;;;;;7.35;4.85;;;;;;;-1.68;100.00;100315.44;5028699;28;20045;-81
2024/01/16 02:24:41;;;;;;;8.10;4.90;;;;;;;-1.69;100.00;100313.84;5009106;28;20462;-80
2024/01/16 02:27:07;;;;;;;8.95;4.60;;;;;;;-1.71;100.00;100328.97;5027758;28;20111;-79
2024/01/16 02:29:32;;;;;;;8.80;4.95;;;;;;;-1.69;100.00;100326.97;5021649;28;20029;-83
2024/01/16 02:31:58;;;;;;;8.23;5.00;;;;;;;-1.70;100.00;100328.75;5020207;28;20856;-82
2024/01/16 02:34:24;;;;;;;8.63;5.75;;;;;;;-1.72;100.00;100327.34;5013698;28;20582;-82
2024/01/16 02:36:50;;;;;;;10.38;5.80;;;;;;;-1.74;100.00;100338.06;5022854;28;20043;-81
2024/01/16 02:39:16;;;;;;;9.57;6.30;;;;;;;-1.74;100.00;100329.38;5032986;28;20067;-82
2024/01/16 02:41:42;;;;;;;10.63;6.88;;;;;;;-1.79;100.00;100323.91;5017245;28;20127;-80
2024/01/16 02:44:07;;;;;;;12.15;7.20;;;;;;;-1.81;100.00;100329.34;4987353;28;20462;-81
2024/01/16 02:46:34;;;;;;;12.38;7.90;;;;;;;-1.85;100.00;100330.75;5022275;28;20099;-82
2024/01/16 02:48:59;;;;;;;;;;;;;;;-1.87;100.00;100329.34;5016354;28;20057;-82
2024/01/16 02:51:25;;;;;;;13.88;7.90;;;;;;;-1.93;100.00;100321.25;5020103;28;19952;-80
2024/01/16 02:53:51;;;;;;;13.63;7.97;;;;;;;-1.97;100.00;100319.19;5039617;28;20466;-82
2024/01/16 02:56:16;;;;;;;14.30;8.15;;;;;;;-2.02;100.00;100327.69;5023726;28;20038;-82
2024/01/16 02:58:42;;;;;;;15.27;8.10;;;;;;;-2.06;100.00;100326.44;5007570;28;20048;-83
2024/01/16 03:01:08;;;;;;;15.10;8.07;;;;;;;-2.11;100.00;100318.34;5038483;28;20041;-81
2024/01/16 03:03:35;;;;;;;14.48;8.13;;;;;;;-2.15;100.00;100314.53;5048860;28;20032;-81
2024/01/16 03:06:01;;;;;;;14.50;7.72;;;;;;;-2.19;100.00;100315.91;5022036;28;20029;-80
2024/01/16 03:08:27;;;;;;;13.82;8.32;;;;;;;-2.21;100.00;100315.31;5016402;28;20044;-81
2024/01/16 03:10:53;;;;;;;12.23;7.32;;;;;;;-2.23;100.00;100330.44;5020770;28;20414;-80
2024/01/16 03:13:19;;;;;;;;;;;;;;;-2.27;100.00;100323.94;5023241;28;20812;-82
2024/01/16 03:15:45;;;;;;;12.45;6.90;;;;;;;-2.30;100.00;100327.78;5027852;28;19930;-90
2024/01/16 03:18:12;;;;;;;10.60;6.05;;;;;;;-2.37;100.00;100323.50;5024101;28;20124;-85
2024/01/16 03:20:38;;;;;;;11.93;6.50;;;;;;;-2.43;100.00;100313.81;5032892;28;20123;-83
2024/01/16 03:23:04;;;;;;;12.55;6.53;;;;;;;-2.47;100.00;100316.00;5015206;28;20114;-82
2024/01/16 03:25:29;;;;;;;12.50;7.30;;;;;;;-2.48;100.00;100333.53;4993269;28;20088;-90
2024/01/16 03:27:55;;;;;;;13.52;7.38;;;;;;;-2.54;100.00;100333.50;5010636;28;20525;-80
2024/01/16 03:30:21;;;;;;;10.23;6.32;;;;;;;-2.60;100.00;100332.47;5009008;28;20029;-80
2024/01/16 03:32:47;;;;;;;11.55;6.50;;;;;;;-2.65;100.00;100336.66;5025105;28;20040;-81
2024/01/16 03:35:13;;;;;;;11.75;6.70;;;;;;;-2.70;100.00;100324.16;5013390;28;20036;-80
2024/01/16 03:37:39;;;;;;;11.75;6.72;;;;;;;-2.73;100.00;100324.53;4991062;28;20036;-81
2024/01/16 03:40:05;;;;;;;9.77;6.07;;;;;;;-2.76;100.00;100325.72;5027389;28;20123;-82
2024/01/16 03:42:31;;;;;;;16.58;6.72;;;;;;;-2.76;100.00;100335.41;5023941;28;20045;-81
2024/01/16 03:44:57;;;;;;;9.27;6.13;;;;;;;-2.78;100.00;100327.75;5002866;28;20037;-90
2024/01/16 03:47:23;;;;;;;12.02;6.57;;;;;;;-2.78;100.00;100326.91;5037459;28;20483;-91
2024/01/16 03:49:49;;;;;;;13.60;6.80;;;;;;;-2.79;100.00;100333.16;5031647;28;20575;-91
2024/01/16 03:52:15;;;;;;;11.35;5.78;;;;;;;-2.79;100.00;100335.78;5010615;28;20041;-90
2024/01/16 03:54:40;;;;;;;9.95;5.85;;;;;;;-2.79;100.00;100338.41;5035422;28;20516;-90
2024/01/16 03:57:06;;;;;;;12.30;6.15;;;;;;;-2.83;100.00;100334.56;5045985;28;20029;-88
2024/01/16 03:59:32;;;;;;;12.38;6.20;;;;;;;-2.86;100.00;100340.16;4990482;28;20067;-89
2024/01/16 04:01:58;;;;;;;11.38;6.05;;;;;;;-2.89;100.00;100337.94;5031009;28;20123;-89
2024/01/16 04:04:24;;;;;;;11.25;5.63;;;;;;;-2.89;100.00;100335.31;5020415;28;20055;-90
2024/01/16 04:06:50;;;;;;;11.75;6.40;;;;;;;-2.96;100.00;100340.50;5030364;28;20041;-91
2024/01/16 04:09:16;;;;;;;9.68;5.63;;;;;;;-2.97;100.00;100345.94;5032415;28;20056;-89
2024/01/16 04:11:42;;;;;;;12.38;7.10;;;;;;;-2.98;100.00;100352.16;5034922;28;20034;-87
2024/01/16 04:14:08;;;;;;;11.32;6.18;;;;;;;-3.00;100.00;100343.69;5043680;28;20032;-90
2024/01/16 04:16:33;;;;;;;10.80;6.82;;;;;;;-3.03;100.00;100337.84;5016647;28;20438;-90
2024/01/16 04:18:59;;;;;;;11.45;6.55;;;;;;;-3.05;100.00;100332.00;5030371;28;20032;-89
2024/01/16 04:21:26;;;;;;;11.90;6.45;;;;;;;-3.04;100.00;100331.00;5019269;28;20032;-89
2024/01/16 04:23:52;;;;;;;11.70;6.72;;;;;;;-3.03;100.00;100334.41;5033484;28;20090;-87
2024/01/16 04:26:18;;;;;;;12.20;7.22;;;;;;;-3.00;100.00;100343.69;5016115;28;20057;-89
2024/01/16 04:28:43;;;;;;;13.18;6.30;;;;;;;-2.96;100.00;100337.09;5014129;28;20036;-90
2024/01/16 04:31:11;;;;;;;13.88;7.53;;;;;;;-2.95;100.00;100330.84;5031481;28;20029;-88
2024/01/16 04:33:38;;;;;;;12.27;7.10;;;;;;;-2.96;100.00;100334.47;5000238;28;20041;-85
2024/01/16 04:36:05;;;;;;;11.52;6.95;;;;;;;-2.96;100.00;100344.94;5031267;28;20433;-89
2024/01/16 04:38:31;;;;;;;13.85;6.97;;;;;;;-2.97;100.00;100340.72;5038804;28;20021;-89
2024/01/16 04:40:57;;;;;;;13.13;6.95;;;;;;;-2.99;100.00;100340.06;5015501;28;20376;-87
2024/01/16 04:43:22;;;;;;;13.13;6.57;;;;;;;-3.02;100.00;100338.66;5016982;28;20037;-85
2024/01/16 04:45:48;;;;;;;11.35;6.32;;;;;;;-3.06;100.00;100340.81;5031529;28;20040;-86
2024/01/16 04:48:14;;;;;;;12.05;6.43;;;;;;;-3.08;100.00;100337.59;5028625;28;20048;-86
2024/01/16 04:50:40;;;;;;;13.15;6.25;;;;;;;-3.10;100.00;100329.13;4999683;28;20033;-86
2024/01/16 04:53:15;;;;;;;13.23;6.05;;;;;;;-3.15;100.00;100315.78;5005874;28;20037;-87
2024/01/16 04:55:46;;;;;;;13.27;5.93;;;;;;;-3.19;100.00;100324.19;5035259;28;20575;-87
2024/01/16 04:58:12;;;;;;;11.25;5.53;;;;;;;-3.21;100.00;100326.22;5015959;28;20037;-83
2024/01/16 05:00:38;;;;;;;9.77;4.93;;;;;;;-3.19;100.00;100327.63;5034546;28;20067;-84
2024/01/16 05:03:05;;;;;;;10.07;4.90;;;;;;;-3.20;100.00;100320.78;5031209;28;20032;-85
2024/01/16 05:05:31;;;;;;;8.68;4.13;;;;;;;-3.25;100.00;100315.31;5006823;28;20111;-85
2024/01/16 05:07:57;;;;;;;8.50;3.90;;;;;;;-3.25;100.00;100320.56;5020508;28;20128;-86
2024/01/16 05:10:22;;;;;;;7.80;3.88;;;;;;;-3.23;100.00;100326.41;5023008;28;20568;-82
2024/01/16 05:12:50;;;;;;;9.13;3.50;;;;;;;-3.18;100.00;100325.84;5036017;28;20029;-89
2024/01/16 05:15:16;;;;;;;7.30;3.45;;;;;;;-3.20;100.00;100317.34;4997514;28;20039;-87
2024/01/16 05:17:43;;;;;;;6.88;3.20;;;;;;;-3.19;100.00;100329.44;5033056;28;20037;-81
2024/01/16 05:20:10;;;;;;;5.78;3.03;;;;;;;-3.22;100.00;100332.44;5017571;28;20072;-85
2024/01/16 05:22:38;;;;;;;6.50;3.47;;;;;;;-3.21;100.00;100334.88;5044592;28;20103;-83
2024/01/16 05:25:10;;;;;;;5.93;3.33;;;;;;;-3.13;100.00;100339.97;5033092;28;20033;-82
2024/01/16 05:27:36;;;;;;;7.03;3.50;;;;;;;-2.99;100.00;100351.34;5015181;28;20041;-83
2024/01/16 05:30:03;;;;;;;5.65;3.20;;;;;;;-2.87;100.00;100343.78;5037783;28;20513;-83
2024/01/16 05:32:30;;;;;;;4.72;2.58;;;;;;;-2.80;100.00;100342.81;5028242;28;20048;-82
2024/01/16 05:34:57;;;;;;;5.30;2.78;;;;;;;-2.69;100.00;100325.78;5039497;28;20143;-82
2024/01/16 05:37:22;;;;;;;5.85;2.15;;;;;;;-2.60;100.00;100335.09;5018883;28;20960;-82
2024/01/16 05:39:48;;;;;;;3.83;1.98;;;;;;;-2.50;100.00;100340.81;5015399;28;20037;-82
2024/01/16 05:42:14;;;;;;;4.50;2.00;;;;;;;-2.45;100.00;100329.72;5048365;28;20050;-80
2024/01/16 05:44:40;;;;;;;;;;;;;;;-2.37;100.00;100329.56;5002131;28;20033;-82
2024/01/16 05:47:06;;;;;;;3.80;1.88;;;;;;;-2.29;100.00;100331.22;4994229;28;20525;-84
2024/01/16 05:49:32;;;;;;;2.55;1.35;;;;;;;-2.26;100.00;100320.31;5014723;28;20041;-85
2024/01/16 05:51:58;;;;;;;2.55;1.50;;;;;;;-2.16;100.00;100328.66;5047893;28;20070;-83
2024/01/16 05:54:24;;;;;;;4.07;1.48;;;;;;;-2.12;100.00;100342.97;5021277;28;20120;-82
2024/01/16 05:56:51;;;;;;;4.25;1.42;;;;;;;-2.08;100.00;100338.97;5013004;28;20027;-82
2024/01/16 05:59:16;;;;;;;3.78;1.33;;;;;;;-2.06;100.00;100334.31;5016940;28;20036;-82
2024/01/16 06:01:43;;;;;;;4.38;1.13;;;;;;;-1.99;100.00;100336.97;5032210;28;20041;-83
2024/01/16 06:04:08;;;;;;;3.83;1.30;;;;;;;-1.97;100.00;100338.38;5029839;28;20077;-83
2024/01/16 06:06:34;;;;;;;2.72;0.95;;;;;;;-1.96;100.00;100333.97;5012330;28;20037;-82
2024/01/16 06:09:05;;;;;;;5.10;1.13;;;;;;;-1.90;100.00;100330.53;5029875;28;20541;-81
2024/01/16 06:11:32;;;;;;;3.60;1.10;;;;;;;-1.87;100.00;100326.72;5026302;28;20048;-83
2024/01/16 06:13:58;;;;;;;;;;;;;;;-1.83;100.00;100325.28;5010984;28;20040;-81
2024/01/16 06:16:24;;;;;;;9.80;1.77;;;;;;;-1.81;100.00;100316.22;5008900;28;19921;-84
2024/01/16 06:18:50;;;;;;;3.85;1.52;;;;;;;-1.80;100.00;100319.66;5048728;28;20036;-85
2024/01/16 06:21:17;;;;;;;3.97;1.30;;;;;;;-1.80;100.00;100327.53;5033428;28;20106;-87
2024/01/16 06:23:44;;;;;;;7.72;1.13;;;;;;;-1.84;100.00;100316.59;5027465;28;20473;-84
2024/01/16 06:26:10;;;;;;;4.60;1.55;;;;;;;-1.81;100.00;100333.78;5013881;28;20040;-82
2024/01/16 06:28:36;;;;;;;9.40;1.65;;;;;;;-1.83;100.00;100327.91;5017694;28;20037;-82
2024/01/16 06:31:02;;;;;;;8.75;1.83;;;;;;;-1.85;100.00;100327.31;5015701;28;20053;-85
2024/01/16 06:33:27;;;;;;;7.03;1.70;;;;;;;-1.83;100.00;100335.78;5038356;28;20756;-82
2024/01/16 06:35:55;;;;;;;5.07;1.95;;;;;;;-1.82;100.00;100342.69;5040190;28;20045;-83
2024/01/16 06:38:26;;;;;;;4.97;1.95;;;;;;;-1.78;100.00;100334.19;5036867;28;20033;-83
2024/01/16 06:40:52;;;;;;;7.20;1.52;;;;;;;-1.76;100.00;100326.13;5027422;28;20060;-86
2024/01/16 06:43:18;;;;;;;3.35;1.42;;;;;;;-1.75;100.00;100325.94;5035440;28;20063;-85
2024/01/16 06:45:44;;;;;;;5.63;1.92;;;;;;;-1.69;100.00;100326.97;5030993;28;20632;-81
2024/01/16 06:48:10;;;;;;;7.35;2.30;;;;;;;-1.69;100.00;100329.59;5034728;28;20029;-83
2024/01/16 06:50:35;;;;;;;6.03;1.88;;;;;;;-1.65;100.00;100333.41;5040132;28;20044;-83
2024/01/16 06:53:01;;;;;;;6.45;2.00;;;;;;;-1.63;100.00;100326.13;5026271;28;20041;-84
2024/01/16 06:55:27;;;;;;;5.10;2.10;;;;;;;-1.60;100.00;100325.75;5009167;28;20034;-83
2024/01/16 06:57:53;;;;;;;6.47;2.10;;;;;;;-1.59;100.00;100327.38;5032757;28;20043;-79
2024/01/16 07:00:20;;;;;;;8.88;2.75;;;;;;;-1.55;100.00;100333.84;5012283;28;20037;-81
2024/01/16 07:02:46;;;;;;;4.78;1.77;;;;;;;-1.52;100.00;100343.94;5004556;28;20034;-80
2024/01/16 07:05:12;;;;;;;7.78;2.30;;;;;;;-1.52;100.00;100338.69;5043485;28;20425;-80
2024/01/16 07:07:38;;;;;;;5.70;1.90;;;;;;;-1.49;100.00;100337.47;4996383;28;20125;-81
2024/01/16 07:10:08;;;;;;;10.93;2.42;;;;;;;-1.47;100.00;100341.53;5026636;28;20136;-81
2024/01/16 07:12:34;;;;;;;8.30;2.10;;;;;;;-1.48;100.00;100342.53;5006549;28;20037;-81
2024/01/16 07:14:59;;;;;;;8.27;2.15;;;;;;;-1.45;100.00;100333.44;5014679;28;20108;-80
2024/01/16 07:17:26;;;;;;;10.27;2.78;;;;;;;-1.47;100.00;100344.16;5039380;28;20505;-81
2024/01/16 07:19:52;;;;;;;8.10;2.33;;;;;;;-1.48;100.00;100339.91;5015830;28;20073;-81
2024/01/16 07:22:17;;;;;;;8.18;3.00;;;;;;;-1.48;100.00;100341.75;5013137;28;20122;-81
2024/01/16 07:24:43;;;;;;;6.68;2.90;;;;;;;-1.50;100.00;100336.66;5008551;28;20119;-81
2024/01/16 07:27:08;;;;;;;12.15;4.18;;;;;;;-1.53;100.00;100334.44;5030641;28;20032;-83
2024/01/16 07:29:34;;;;;;;9.68;3.38;;;;;;;-1.52;100.00;100338.69;5023421;28;20037;-80
2024/01/16 07:32:00;;;;;;;9.55;4.03;;;;;;;-1.48;100.00;100344.38;5007255;28;20454;-84
2024/01/16 07:34:25;;;;;;;11.32;3.92;;;;;;;-1.49;100.00;100337.47;4992974;28;20080;-79
2024/01/16 07:36:51;;;;;;;7.78;3.65;;;;;;;-1.49;100.00;100343.56;5027933;28;20045;-80
2024/01/16 07:39:16;;;;;;;12.77;5.00;;;;;;;-1.50;100.00;100341.91;5009890;28;20043;-81
2024/01/16 07:41:42;;;;;;;11.95;4.63;;;;;;;-1.48;100.00;100344.38;5030685;28;20040;-80
2024/01/16 07:44:08;;;;;;;17.42;5.68;;;;;;;-1.48;100.00;100341.75;5008287;28;20045;-80
2024/01/16 07:46:34;;;;;;;10.85;5.72;;;;;;;-1.48;100.00;100353.06;5043305;28;20037;-81
2024/01/16 07:48:59;;;;;;;13.43;5.57;;;;;;;-1.49;100.00;100351.44;5044731;28;20041;-82
2024/01/16 07:51:25;;;;;;;14.20;5.60;;;;;;;-1.48;100.00;100347.00;5006350;28;20551;-79
2024/01/16 07:54:05;;;;;;;13.35;6.32;;;;;;;-1.48;100.00;100349.63;5029933;28;20046;-82
2024/01/16 07:56:33;;;;;;;12.13;6.13;;;;;;;-1.49;100.00;100354.06;5015760;28;20049;-81
2024/01/16 07:58:59;;;;;;;16.00;5.88;;;;;;;-1.49;100.00;100359.31;4994803;28;20037;-82
2024/01/16 08:01:25;;;;;;;12.57;6.18;;;;;;;-1.49;100.00;100347.97;5019445;28;20033;-83
2024/01/16 08:03:51;;;;;;;12.48;5.47;;;;;;;-1.46;100.00;100353.66;5027060;28;20565;-83
2024/01/16 08:06:17;;;;;;;;;;;;;;;-1.45;100.00;100354.47;5009591;28;20039;-80
2024/01/16 08:08:42;;;;;;;12.00;4.93;;;;;;;-1.43;100.00;100349.81;5023905;28;19924;-80
2024/01/16 08:11:08;;;;;;;9.05;5.07;;;;;;;-1.39;100.00;100354.47;5006022;28;20075;-77
2024/01/16 08:13:34;;;;;;;7.55;4.68;;;;;;;-1.35;100.00;100356.69;5024815;28;20048;-82
2024/01/16 08:16:00;;;;;;;10.10;4.90;;;;;;;-1.30;100.00;100364.78;5010421;28;20036;-81
2024/01/16 08:18:26;;;;;;;11.45;4.80;;;;;;;-1.28;100.00;100352.25;5025277;28;20033;-81
2024/01/16 08:20:52;;;;;;;7.65;4.63;;;;;;;-1.25;100.00;100352.66;5038949;28;20044;-82
2024/01/16 08:23:18;;;;;;;16.63;5.60;;;;;;;-1.23;100.00;100355.06;5040559;28;20044;-81
2024/01/16 08:25:43;;;;;;;9.32;5.03;;;;;;;-1.19;100.00;100353.69;5009050;28;20127;-81
2024/01/16 08:28:10;;;;;;;13.95;5.50;;;;;;;-1.16;100.00;100358.50;5026020;28;20490;-80
2024/01/16 08:30:36;;;;;;;11.25;5.13;;;;;;;-1.15;100.00;100345.19;5007789;28;20044;-81
2024/01/16 08:33:02;;;;;;;6.88;4.63;;;;;;;-1.16;100.00;100348.00;5022039;28;20041;-82
2024/01/16 08:35:28;;;;;;;10.88;4.55;;;;;;;-1.12;100.00;100351.84;5003187;28;20044;-81
2024/01/16 08:37:53;;;;;;;10.80;4.93;;;;;;;-1.10;100.00;100348.00;5038526;28;20149;-78
2024/01/16 08:40:19;;;;;;;11.60;5.03;;;;;;;-1.07;100.00;100356.50;5029234;28;20530;-82
2024/01/16 08:42:45;;;;;;;12.55;5.20;;;;;;;-1.05;100.00;100355.28;5047928;28;20028;-82
2024/01/16 08:45:11;;;;;;;12.32;5.43;;;;;;;-1.02;100.00;100348.81;5045124;28;20513;-84
2024/01/16 08:47:37;;;;;;;10.85;5.40;;;;;;;-1.02;100.00;100356.69;5032185;28;20072;-81
2024/01/16 08:50:03;;;;;;;9.02;4.80;;;;;;;-1.01;100.00;100363.59;5014240;28;20033;-80
2024/01/16 08:52:29;;;;;;;13.25;6.00;;;;;;;-1.04;100.00;100364.78;5044098;28;20108;-79
2024/01/16 08:54:55;;;;;;;12.95;5.93;;;;;;;-1.03;100.00;100368.22;5015497;28;20071;-80
2024/01/16 08:57:20;;;;;;;8.90;5.45;;;;;;;-1.05;100.00;100378.94;5010870;28;20025;-79
2024/01/16 08:59:46;;;;;;;13.32;5.70;;;;;;;-1.04;100.00;100374.50;5007792;28;20477;-82
2024/01/16 09:02:12;;;;;;;17.77;6.85;;;;;;;-1.04;100.00;100377.94;5046487;28;20028;-79
2024/01/16 09:04:37;;;;;;;12.73;6.15;;;;;;;-1.04;100.00;100370.03;5020317;28;20032;-84
2024/01/16 09:07:04;;;;;;;12.23;6.82;;;;;;;-1.04;100.00;100383.19;5014343;28;20041;-80
2024/01/16 09:09:30;;;;;;;17.42;6.55;;;;;;;-1.00;100.00;100375.72;5042549;28;20112;-80
2024/01/16 09:11:57;;;;;;;12.65;6.57;;;;;;;-0.98;100.00;100371.06;5044149;28;20116;-82
2024/01/16 09:14:23;;;;;;;15.88;8.00;;;;;;;-0.97;100.00;100380.56;5010447;28;20037;-81
2024/01/16 09:16:49;;;;;;;17.38;7.85;;;;;;;-0.98;100.00;100387.63;5027166;28;20033;-79
2024/01/16 09:19:14;;;;;;;13.05;6.97;;;;;;;-0.99;100.00;100383.38;5016218;28;20506;-81
2024/01/16 09:21:40;;;;;;;14.82;7.10;;;;;;;-0.94;100.00;100380.97;5028075;28;20146;-79
2024/01/16 09:24:06;;;;;;;12.77;7.40;;;;;;;-0.92;100.00;100383.38;5026337;28;20041;-82
2024/01/16 09:26:31;;;;;;;13.50;6.93;;;;;;;-0.91;100.00;100385.81;5009968;28;20059;-83
2024/01/16 09:28:57;;;;;;;12.93;6.60;;;;;;;-0.83;100.00;100372.44;4992054;28;20402;-85
2024/01/16 09:31:23;;;;;;;12.45;6.10;;;;;;;-0.80;100.00;100373.88;5018012;28;20068;-81
2024/01/16 09:33:49;;;;;;;12.43;6.22;;;;;;;-0.76;100.00;100376.91;4993360;28;20116;-82
2024/01/16 09:36:15;;;;;;;11.15;5.90;;;;;;;-0.74;100.00;100378.34;5023256;28;20073;-80
2024/01/16 09:38:41;;;;;;;15.32;6.18;;;;;;;-0.70;100.00;100376.09;5027197;28;20144;-82
2024/01/16 09:41:07;;;;;;;9.05;4.95;;;;;;;-0.71;100.00;100377.09;5016394;28;20045;-81
2024/01/16 09:43:33;;;;;;;11.77;5.28;;;;;;;-0.72;100.00;100380.75;5015682;28;20029;-83
2024/01/16 09:46:04;;;;;;;8.00;4.60;;;;;;;-0.70;100.00;100378.72;5023961;28;20041;-81
2024/01/16 09:48:31;;;;;;;9.52;4.32;;;;;;;-0.66;100.00;100386.00;5008650;28;20129;-81
2024/01/16 09:50:57;;;;;;;;;;;;;;;-0.61;100.00;100393.25;5005699;28;20072;-82
2024/01/16 09:53:22;;;;;;;8.18;3.97;;;;;;;-0.63;100.00;100385.59;5022649;28;20558;-80
2024/01/16 09:55:49;;;;;;;8.52;3.80;;;;;;;-0.63;100.00;100395.28;5014014;28;20036;-82
2024/01/16 09:58:19;;;;;;;9.32;4.10;;;;;;;-0.62;100.00;100389.00;5041981;28;20037;-82
2024/01/16 10:00:46;;;;;;;10.27;3.30;;;;;;;-0.56;100.00;100390.81;5008355;28;20041;-81
2024/01/16 10:03:14;;;;;;;4.97;2.78;;;;;;;-0.53;100.00;100390.44;5024571;28;20036;-82
2024/01/16 10:05:44;;;;;;;6.05;2.80;;;;;;;-0.52;100.00;100397.31;5025088;28;20037;-84
2024/01/16 10:08:10;;;;;;;8.02;2.85;;;;;;;-0.51;100.00;100400.75;5032303;28;20059;-81
2024/01/16 10:10:36;;;;;;;6.55;3.20;;;;;;;-0.47;100.00;100396.69;5006359;28;20419;-82
2024/01/16 10:13:03;;;;;;;8.10;2.90;;;;;;;-0.48;100.00;100398.50;5007351;28;20406;-83
2024/01/16 10:15:29;;;;;;;5.18;2.53;;;;;;;-0.50;100.00;100394.47;5036985;28;20144;-82
2024/01/16 10:17:55;;;;;;;9.35;2.80;;;;;;;-0.46;100.00;100391.22;5026651;28;20124;-82
2024/01/16 10:20:32;;;;;;;5.57;2.63;;;;;;;-0.47;100.00;100397.50;5038620;28;20107;-81
2024/01/16 10:22:58;;;;;;;5.38;2.58;;;;;;;-0.47;100.00;100389.63;5009228;28;20032;-79
2024/01/16 10:25:24;;;;;;;9.55;3.90;;;;;;;-0.44;100.00;100404.97;5010071;28;20037;-79
2024/01/16 10:28:03;;;;;;;10.60;4.50;;;;;;;-0.35;100.00;100409.00;4998909;28;20094;-79
2024/01/16 10:30:29;;;;;;;21.95;8.10;;;;;;;-0.38;100.00;100398.91;5006845;28;20200;-81
2024/01/16 10:32:57;;;;;;;18.40;10.27;;;;;;;-0.36;100.00;100409.22;5020498;28;20099;-81
2024/01/16 10:35:23;;;;;;;16.73;8.55;;;;;;;-0.38;100.00;100398.91;5022301;28;20040;-80
2024/01/16 10:37:52;;;;;;;10.35;5.82;;;;;;;-0.36;100.00;100407.38;5012997;28;20037;-81
2024/01/16 10:40:18;;;;;;;9.60;4.78;;;;;;;-0.38;100.00;100409.41;4989427;28;20154;-81
2024/01/16 10:42:46;;;;;;;6.30;2.90;;;;;;;-0.36;100.00;100406.56;5028504;28;20159;-78
2024/01/16 10:45:18;;;;;;;6.80;3.10;;;;;;;-0.35;100.00;100403.72;4987586;28;20040;-81
2024/01/16 10:47:46;;;;;;;6.25;1.80;;;;;;;-0.35;100.00;100409.00;5030340;28;20052;-81
2024/01/16 10:50:12;;;;;;;6.18;2.20;;;;;;;-0.33;100.00;100409.63;5013081;28;20491;-80
2024/01/16 10:52:45;;;;;;;;;;;;;;;-0.33;100.00;100417.50;5039916;28;20111;-82
2024/01/16 10:55:15;;;;;;;5.78;2.03;;;;;;;-0.25;100.00;100405.97;5035613;28;19917;-82
2024/01/16 10:57:41;;;;;;;9.40;2.13;;;;;;;-0.21;100.00;100415.03;5008987;28;20112;-82
2024/01/16 11:00:08;;;;;;;5.43;1.67;;;;;;;-0.20;100.00;100413.22;4994820;28;20152;-82
2024/01/16 11:02:49;;;;;;;6.15;2.55;;;;;;;-0.22;100.00;100412.63;5006783;28;20546;-82
2024/01/16 11:05:17;;;;;;;7.28;2.53;;;;;;;-0.23;100.00;100421.53;5029133;28;20040;-81
2024/01/16 11:07:44;;;;;;;8.00;2.47;;;;;;;-0.20;100.00;100415.84;4989575;28;20041;-81
2024/01/16 11:10:10;;;;;;;6.50;2.65;;;;;;;-0.19;100.00;100422.75;5025851;28;20529;-81
2024/01/16 11:12:38;;;;;;;;;;;;;;;-0.19;100.00;100417.47;5005345;28;20529;-80